sensor_id;sensor_type;location;lat;lon;timestamp;P1;durP1;ratioP1;P2;durP2;ratioP2
3547;SDS011;1788;49.400;11.092;2024-01-07T00:01:53;17.17;;;11.03;;
3547;SDS011;1788;49.400;11.092;2024-01-07T00:04:20;17.03;;;10.70;;
3547;SDS011;1788;49.400;11.092;2024-01-07T00:06:47;20.93;;;10.63;;
3547;SDS011;1788;49.400;11.092;2024-01-07T00:09:15;16.20;;;9.93;;
3547;SDS011;1788;49.400;11.092;2024-01-07T00:11:41;18.07;;;10.73;;
3547;SDS011;1788;49.400;11.092;2024-01-07T00:14:08;18.23;;;10.97;;
3547;SDS011;1788;49.400;11.092;2024-01-07T00:16:34;11.57;;;9.70;;
3547;SDS011;1788;49.400;11.092;2024-01-07T00:19:02;16.93;;;10.23;;
3547;SDS011;1788;49.400;11.092;2024-01-07T00:21:28;14.90;;;10.23;;
3547;SDS011;1788;49.400;11.092;2024-01-07T00:23:55;17.67;;;11.50;;
3547;SDS011;1788;49.400;11.092;2024-01-07T00:26:22;16.63;;;10.83;;
3547;SDS011;1788;49.400;11.092;2024-01-07T00:28:50;14.17;;;10.07;;
3547;SDS011;1788;49.400;11.092;2024-01-07T00:31:17;13.83;;;10.07;;
3547;SDS011;1788;49.400;11.092;2024-01-07T00:33:44;17.57;;;10.10;;
3547;SDS011;1788;49.400;11.092;2024-01-07T00:36:12;18.27;;;10.93;;
3547;SDS011;1788;49.400;11.092;2024-01-07T00:38:38;18.73;;;10.00;;
3547;SDS011;1788;49.400;11.092;2024-01-07T00:41:05;16.80;;;10.00;;
3547;SDS011;1788;49.400;11.092;2024-01-07T00:43:32;17.13;;;10.90;;
3547;SDS011;1788;49.400;11.092;2024-01-07T00:45:58;18.97;;;10.30;;
3547;SDS011;1788;49.400;11.092;2024-01-07T00:48:26;14.17;;;9.70;;
3547;SDS011;1788;49.400;11.092;2024-01-07T00:50:52;17.23;;;10.80;;
3547;SDS011;1788;49.400;11.092;2024-01-07T00:53:19;15.47;;;10.13;;
3547;SDS011;1788;49.400;11.092;2024-01-07T00:55:47;14.10;;;9.53;;
3547;SDS011;1788;49.400;11.092;2024-01-07T00:58:13;16.80;;;10.23;;
3547;SDS011;1788;49.400;11.092;2024-01-07T01:00:40;15.70;;;9.70;;
3547;SDS011;1788;49.400;11.092;2024-01-07T01:03:07;17.57;;;10.23;;
3547;SDS011;1788;49.400;11.092;2024-01-07T01:05:33;18.60;;;10.87;;
3547;SDS011;1788;49.400;11.092;2024-01-07T01:08:00;16.63;;;11.10;;
3547;SDS011;1788;49.400;11.092;2024-01-07T01:10:26;16.97;;;10.23;;
3547;SDS011;1788;49.400;11.092;2024-01-07T01:12:53;15.63;;;10.57;;
3547;SDS011;1788;49.400;11.092;2024-01-07T01:15:20;16.33;;;9.83;;
3547;SDS011;1788;49.400;11.092;2024-01-07T01:17:47;12.73;;;9.33;;
3547;SDS011;1788;49.400;11.092;2024-01-07T01:20:14;14.23;;;10.07;;
3547;SDS011;1788;49.400;11.092;2024-01-07T01:22:42;15.20;;;10.47;;
3547;SDS011;1788;49.400;11.092;2024-01-07T01:25:09;14.17;;;9.10;;
3547;SDS011;1788;49.400;11.092;2024-01-07T01:27:36;17.17;;;10.20;;
3547;SDS011;1788;49.400;11.092;2024-01-07T01:30:02;17.40;;;10.77;;
3547;SDS011;1788;49.400;11.092;2024-01-07T01:32:29;17.07;;;9.63;;
3547;SDS011;1788;49.400;11.092;2024-01-07T01:34:55;18.63;;;10.77;;
3547;SDS011;1788;49.400;11.092;2024-01-07T01:37:22;16.73;;;10.30;;
3547;SDS011;1788;49.400;11.092;2024-01-07T01:39:49;15.03;;;10.20;;
3547;SDS011;1788;49.400;11.092;2024-01-07T01:42:15;14.43;;;9.37;;
3547;SDS011;1788;49.400;11.092;2024-01-07T01:44:42;17.97;;;10.60;;
3547;SDS011;1788;49.400;11.092;2024-01-07T01:47:09;15.20;;;10.10;;
3547;SDS011;1788;49.400;11.092;2024-01-07T01:49:36;18.13;;;11.40;;
3547;SDS011;1788;49.400;11.092;2024-01-07T01:52:04;15.43;;;10.13;;
3547;SDS011;1788;49.400;11.092;2024-01-07T01:54:30;19.67;;;10.80;;
3547;SDS011;1788;49.400;11.092;2024-01-07T01:56:57;17.27;;;10.60;;
3547;SDS011;1788;49.400;11.092;2024-01-07T01:59:24;17.97;;;10.67;;
3547;SDS011;1788;49.400;11.092;2024-01-07T02:01:51;16.50;;;10.47;;
3547;SDS011;1788;49.400;11.092;2024-01-07T02:04:18;17.50;;;10.63;;
3547;SDS011;1788;49.400;11.092;2024-01-07T02:06:45;14.10;;;9.47;;
3547;SDS011;1788;49.400;11.092;2024-01-07T02:09:11;15.07;;;9.33;;
3547;SDS011;1788;49.400;11.092;2024-01-07T02:11:38;17.97;;;11.07;;
3547;SDS011;1788;49.400;11.092;2024-01-07T02:14:04;18.50;;;10.83;;
3547;SDS011;1788;49.400;11.092;2024-01-07T02:16:32;16.83;;;10.60;;
3547;SDS011;1788;49.400;11.092;2024-01-07T02:18:58;17.50;;;10.23;;
3547;SDS011;1788;49.400;11.092;2024-01-07T02:21:25;17.47;;;9.93;;
3547;SDS011;1788;49.400;11.092;2024-01-07T02:23:52;15.70;;;8.87;;
3547;SDS011;1788;49.400;11.092;2024-01-07T02:26:21;14.60;;;9.83;;
3547;SDS011;1788;49.400;11.092;2024-01-07T02:28:48;16.07;;;8.97;;
3547;SDS011;1788;49.400;11.092;2024-01-07T02:31:16;16.63;;;9.27;;
3547;SDS011;1788;49.400;11.092;2024-01-07T02:33:43;14.27;;;8.10;;
3547;SDS011;1788;49.400;11.092;2024-01-07T02:36:11;13.67;;;8.40;;
3547;SDS011;1788;49.400;11.092;2024-01-07T02:38:37;14.77;;;8.40;;
3547;SDS011;1788;49.400;11.092;2024-01-07T02:41:05;11.47;;;7.93;;
3547;SDS011;1788;49.400;11.092;2024-01-07T02:43:32;10.53;;;7.17;;
3547;SDS011;1788;49.400;11.092;2024-01-07T02:45:59;9.97;;;7.63;;
3547;SDS011;1788;49.400;11.092;2024-01-07T02:48:27;12.70;;;8.13;;
3547;SDS011;1788;49.400;11.092;2024-01-07T02:50:54;15.50;;;7.93;;
3547;SDS011;1788;49.400;11.092;2024-01-07T02:53:20;11.90;;;6.93;;
3547;SDS011;1788;49.400;11.092;2024-01-07T02:55:47;12.83;;;7.50;;
3547;SDS011;1788;49.400;11.092;2024-01-07T02:58:14;12.43;;;7.27;;
3547;SDS011;1788;49.400;11.092;2024-01-07T03:00:41;12.43;;;6.93;;
3547;SDS011;1788;49.400;11.092;2024-01-07T03:03:07;12.50;;;7.47;;
3547;SDS011;1788;49.400;11.092;2024-01-07T03:05:34;10.70;;;6.97;;
3547;SDS011;1788;49.400;11.092;2024-01-07T03:08:01;12.50;;;7.97;;
3547;SDS011;1788;49.400;11.092;2024-01-07T03:10:27;11.57;;;7.43;;
3547;SDS011;1788;49.400;11.092;2024-01-07T03:12:54;11.67;;;7.43;;
3547;SDS011;1788;49.400;11.092;2024-01-07T03:15:21;11.43;;;7.83;;
3547;SDS011;1788;49.400;11.092;2024-01-07T03:17:48;10.43;;;7.67;;
3547;SDS011;1788;49.400;11.092;2024-01-07T03:20:15;14.03;;;7.43;;
3547;SDS011;1788;49.400;11.092;2024-01-07T03:22:43;9.20;;;6.67;;
3547;SDS011;1788;49.400;11.092;2024-01-07T03:25:09;11.97;;;7.23;;
3547;SDS011;1788;49.400;11.092;2024-01-07T03:27:37;10.03;;;7.33;;
3547;SDS011;1788;49.400;11.092;2024-01-07T03:30:04;11.37;;;7.00;;
3547;SDS011;1788;49.400;11.092;2024-01-07T03:32:31;11.67;;;7.60;;
3547;SDS011;1788;49.400;11.092;2024-01-07T03:34:59;11.13;;;6.90;;
3547;SDS011;1788;49.400;11.092;2024-01-07T03:37:26;13.80;;;8.17;;
3547;SDS011;1788;49.400;11.092;2024-01-07T03:39:52;10.50;;;6.77;;
3547;SDS011;1788;49.400;11.092;2024-01-07T03:42:19;10.17;;;7.47;;
3547;SDS011;1788;49.400;11.092;2024-01-07T03:44:46;10.30;;;6.53;;
3547;SDS011;1788;49.400;11.092;2024-01-07T03:47:12;12.00;;;7.33;;
3547;SDS011;1788;49.400;11.092;2024-01-07T03:49:40;14.13;;;7.27;;
3547;SDS011;1788;49.400;11.092;2024-01-07T03:52:06;10.87;;;7.00;;
3547;SDS011;1788;49.400;11.092;2024-01-07T03:54:33;12.50;;;7.67;;
3547;SDS011;1788;49.400;11.092;2024-01-07T03:56:59;12.77;;;7.33;;
3547;SDS011;1788;49.400;11.092;2024-01-07T03:59:26;13.17;;;6.90;;
3547;SDS011;1788;49.400;11.092;2024-01-07T04:01:53;11.57;;;7.23;;
3547;SDS011;1788;49.400;11.092;2024-01-07T04:04:19;13.23;;;7.90;;
3547;SDS011;1788;49.400;11.092;2024-01-07T04:06:46;12.50;;;7.93;;
3547;SDS011;1788;49.400;11.092;2024-01-07T04:09:12;12.53;;;7.83;;
3547;SDS011;1788;49.400;11.092;2024-01-07T04:11:40;16.00;;;7.47;;
3547;SDS011;1788;49.400;11.092;2024-01-07T04:14:06;12.73;;;7.17;;
3547;SDS011;1788;49.400;11.092;2024-01-07T04:16:32;11.57;;;7.87;;
3547;SDS011;1788;49.400;11.092;2024-01-07T04:18:59;11.57;;;6.73;;
3547;SDS011;1788;49.400;11.092;2024-01-07T04:21:26;10.03;;;7.00;;
3547;SDS011;1788;49.400;11.092;2024-01-07T04:23:52;11.37;;;7.00;;
3547;SDS011;1788;49.400;11.092;2024-01-07T04:26:19;11.57;;;6.40;;
3547;SDS011;1788;49.400;11.092;2024-01-07T04:28:45;13.03;;;7.27;;
3547;SDS011;1788;49.400;11.092;2024-01-07T04:31:12;10.97;;;7.50;;
3547;SDS011;1788;49.400;11.092;2024-01-07T04:33:39;14.20;;;7.87;;
3547;SDS011;1788;49.400;11.092;2024-01-07T04:36:05;9.10;;;6.83;;
3547;SDS011;1788;49.400;11.092;2024-01-07T04:38:33;12.20;;;7.17;;
3547;SDS011;1788;49.400;11.092;2024-01-07T04:40:59;15.70;;;8.70;;
3547;SDS011;1788;49.400;11.092;2024-01-07T04:43:26;14.90;;;8.17;;
3547;SDS011;1788;49.400;11.092;2024-01-07T04:45:52;17.30;;;7.90;;
3547;SDS011;1788;49.400;11.092;2024-01-07T04:48:19;15.43;;;7.87;;
3547;SDS011;1788;49.400;11.092;2024-01-07T04:50:46;10.63;;;7.37;;
3547;SDS011;1788;49.400;11.092;2024-01-07T04:53:13;13.80;;;7.83;;
3547;SDS011;1788;49.400;11.092;2024-01-07T04:55:40;9.37;;;7.17;;
3547;SDS011;1788;49.400;11.092;2024-01-07T04:58:07;13.37;;;7.37;;
3547;SDS011;1788;49.400;11.092;2024-01-07T05:00:34;10.27;;;6.90;;
3547;SDS011;1788;49.400;11.092;2024-01-07T05:03:00;13.57;;;7.93;;
3547;SDS011;1788;49.400;11.092;2024-01-07T05:05:27;11.40;;;6.77;;
3547;SDS011;1788;49.400;11.092;2024-01-07T05:07:54;11.57;;;7.03;;
3547;SDS011;1788;49.400;11.092;2024-01-07T05:10:21;11.47;;;6.70;;
3547;SDS011;1788;49.400;11.092;2024-01-07T05:12:47;11.40;;;6.47;;
3547;SDS011;1788;49.400;11.092;2024-01-07T05:15:14;9.47;;;6.03;;
3547;SDS011;1788;49.400;11.092;2024-01-07T05:17:41;12.70;;;6.70;;
3547;SDS011;1788;49.400;11.092;2024-01-07T05:20:08;12.83;;;7.07;;
3547;SDS011;1788;49.400;11.092;2024-01-07T05:22:35;8.87;;;6.10;;
3547;SDS011;1788;49.400;11.092;2024-01-07T05:25:01;10.00;;;7.10;;
3547;SDS011;1788;49.400;11.092;2024-01-07T05:27:28;10.63;;;6.10;;
3547;SDS011;1788;49.400;11.092;2024-01-07T05:29:54;10.80;;;6.20;;
3547;SDS011;1788;49.400;11.092;2024-01-07T05:32:22;11.13;;;6.33;;
3547;SDS011;1788;49.400;11.092;2024-01-07T05:34:49;8.70;;;6.30;;
3547;SDS011;1788;49.400;11.092;2024-01-07T05:37:15;8.00;;;5.53;;
3547;SDS011;1788;49.400;11.092;2024-01-07T05:39:42;10.07;;;6.37;;
3547;SDS011;1788;49.400;11.092;2024-01-07T05:42:09;7.67;;;5.90;;
3547;SDS011;1788;49.400;11.092;2024-01-07T05:44:36;8.13;;;5.33;;
3547;SDS011;1788;49.400;11.092;2024-01-07T05:47:02;8.60;;;5.70;;
3547;SDS011;1788;49.400;11.092;2024-01-07T05:49:29;7.97;;;5.77;;
3547;SDS011;1788;49.400;11.092;2024-01-07T05:51:55;8.00;;;5.67;;
3547;SDS011;1788;49.400;11.092;2024-01-07T05:54:22;9.10;;;5.80;;
3547;SDS011;1788;49.400;11.092;2024-01-07T05:56:49;6.30;;;5.07;;
3547;SDS011;1788;49.400;11.092;2024-01-07T05:59:15;7.97;;;6.23;;
3547;SDS011;1788;49.400;11.092;2024-01-07T06:01:42;10.37;;;6.27;;
3547;SDS011;1788;49.400;11.092;2024-01-07T06:04:09;10.10;;;6.17;;
3547;SDS011;1788;49.400;11.092;2024-01-07T06:06:36;9.47;;;6.40;;
3547;SDS011;1788;49.400;11.092;2024-01-07T06:09:02;7.53;;;6.10;;
3547;SDS011;1788;49.400;11.092;2024-01-07T06:11:29;8.17;;;6.27;;
3547;SDS011;1788;49.400;11.092;2024-01-07T06:13:56;9.50;;;5.73;;
3547;SDS011;1788;49.400;11.092;2024-01-07T06:16:22;8.33;;;5.33;;
3547;SDS011;1788;49.400;11.092;2024-01-07T06:18:49;9.80;;;5.80;;
3547;SDS011;1788;49.400;11.092;2024-01-07T06:21:15;10.23;;;6.07;;
3547;SDS011;1788;49.400;11.092;2024-01-07T06:23:43;10.33;;;5.83;;
3547;SDS011;1788;49.400;11.092;2024-01-07T06:26:09;8.70;;;6.17;;
3547;SDS011;1788;49.400;11.092;2024-01-07T06:28:36;10.53;;;6.50;;
3547;SDS011;1788;49.400;11.092;2024-01-07T06:31:03;10.97;;;6.40;;
3547;SDS011;1788;49.400;11.092;2024-01-07T06:33:29;13.40;;;6.87;;
3547;SDS011;1788;49.400;11.092;2024-01-07T06:35:57;9.43;;;6.43;;
3547;SDS011;1788;49.400;11.092;2024-01-07T06:38:23;11.87;;;6.83;;
3547;SDS011;1788;49.400;11.092;2024-01-07T06:40:50;10.30;;;6.37;;
3547;SDS011;1788;49.400;11.092;2024-01-07T06:43:16;13.17;;;6.93;;
3547;SDS011;1788;49.400;11.092;2024-01-07T06:45:43;10.10;;;6.60;;
3547;SDS011;1788;49.400;11.092;2024-01-07T06:48:10;10.70;;;6.57;;
3547;SDS011;1788;49.400;11.092;2024-01-07T06:50:36;8.93;;;6.37;;
3547;SDS011;1788;49.400;11.092;2024-01-07T06:53:03;11.77;;;6.07;;
3547;SDS011;1788;49.400;11.092;2024-01-07T06:55:30;12.17;;;7.97;;
3547;SDS011;1788;49.400;11.092;2024-01-07T06:57:56;12.40;;;7.23;;
3547;SDS011;1788;49.400;11.092;2024-01-07T07:00:23;10.90;;;6.53;;
3547;SDS011;1788;49.400;11.092;2024-01-07T07:02:50;11.73;;;7.13;;
3547;SDS011;1788;49.400;11.092;2024-01-07T07:05:16;14.37;;;6.93;;
3547;SDS011;1788;49.400;11.092;2024-01-07T07:07:43;15.87;;;7.53;;
3547;SDS011;1788;49.400;11.092;2024-01-07T07:10:09;13.40;;;7.60;;
3547;SDS011;1788;49.400;11.092;2024-01-07T07:12:36;13.93;;;6.87;;
3547;SDS011;1788;49.400;11.092;2024-01-07T07:15:03;14.63;;;8.03;;
3547;SDS011;1788;49.400;11.092;2024-01-07T07:17:29;10.80;;;6.93;;
3547;SDS011;1788;49.400;11.092;2024-01-07T07:19:57;15.33;;;7.70;;
3547;SDS011;1788;49.400;11.092;2024-01-07T07:22:23;11.13;;;6.90;;
3547;SDS011;1788;49.400;11.092;2024-01-07T07:24:50;10.73;;;7.60;;
3547;SDS011;1788;49.400;11.092;2024-01-07T07:27:16;14.80;;;8.17;;
3547;SDS011;1788;49.400;11.092;2024-01-07T07:29:43;16.03;;;8.83;;
3547;SDS011;1788;49.400;11.092;2024-01-07T07:32:10;15.17;;;7.90;;
3547;SDS011;1788;49.400;11.092;2024-01-07T07:34:37;19.13;;;10.43;;
3547;SDS011;1788;49.400;11.092;2024-01-07T07:37:03;14.87;;;8.17;;
3547;SDS011;1788;49.400;11.092;2024-01-07T07:39:30;14.27;;;7.73;;
3547;SDS011;1788;49.400;11.092;2024-01-07T07:41:57;18.00;;;9.17;;
3547;SDS011;1788;49.400;11.092;2024-01-07T07:44:24;14.90;;;8.77;;
3547;SDS011;1788;49.400;11.092;2024-01-07T07:46:50;15.60;;;8.97;;
3547;SDS011;1788;49.400;11.092;2024-01-07T07:49:17;16.30;;;9.17;;
3547;SDS011;1788;49.400;11.092;2024-01-07T07:51:44;16.17;;;8.47;;
3547;SDS011;1788;49.400;11.092;2024-01-07T07:54:11;13.17;;;7.90;;
3547;SDS011;1788;49.400;11.092;2024-01-07T07:56:38;15.50;;;9.00;;
3547;SDS011;1788;49.400;11.092;2024-01-07T07:59:04;16.43;;;8.70;;
3547;SDS011;1788;49.400;11.092;2024-01-07T08:01:31;13.97;;;8.80;;
3547;SDS011;1788;49.400;11.092;2024-01-07T08:03:58;17.07;;;9.07;;
3547;SDS011;1788;49.400;11.092;2024-01-07T08:06:25;13.73;;;8.97;;
3547;SDS011;1788;49.400;11.092;2024-01-07T08:08:52;11.63;;;8.30;;
3547;SDS011;1788;49.400;11.092;2024-01-07T08:11:18;16.70;;;8.93;;
3547;SDS011;1788;49.400;11.092;2024-01-07T08:13:45;15.63;;;9.87;;
3547;SDS011;1788;49.400;11.092;2024-01-07T08:16:11;15.60;;;8.80;;
3547;SDS011;1788;49.400;11.092;2024-01-07T08:18:39;17.87;;;8.63;;
3547;SDS011;1788;49.400;11.092;2024-01-07T08:21:05;15.00;;;9.23;;
3547;SDS011;1788;49.400;11.092;2024-01-07T08:23:32;15.23;;;9.00;;
3547;SDS011;1788;49.400;11.092;2024-01-07T08:25:59;12.03;;;7.73;;
3547;SDS011;1788;49.400;11.092;2024-01-07T08:28:25;14.20;;;9.20;;
3547;SDS011;1788;49.400;11.092;2024-01-07T08:30:52;15.83;;;9.20;;
3547;SDS011;1788;49.400;11.092;2024-01-07T08:33:18;17.47;;;8.93;;
3547;SDS011;1788;49.400;11.092;2024-01-07T08:35:45;14.00;;;8.97;;
3547;SDS011;1788;49.400;11.092;2024-01-07T08:38:12;15.90;;;8.37;;
3547;SDS011;1788;49.400;11.092;2024-01-07T08:40:39;14.53;;;9.73;;
3547;SDS011;1788;49.400;11.092;2024-01-07T08:43:05;13.60;;;7.93;;
3547;SDS011;1788;49.400;11.092;2024-01-07T08:45:31;16.13;;;9.43;;
3547;SDS011;1788;49.400;11.092;2024-01-07T08:47:59;14.57;;;8.80;;
3547;SDS011;1788;49.400;11.092;2024-01-07T08:50:25;15.33;;;8.53;;
3547;SDS011;1788;49.400;11.092;2024-01-07T08:52:52;17.70;;;9.70;;
3547;SDS011;1788;49.400;11.092;2024-01-07T08:55:19;16.87;;;9.17;;
3547;SDS011;1788;49.400;11.092;2024-01-07T08:57:45;16.20;;;9.13;;
3547;SDS011;1788;49.400;11.092;2024-01-07T09:00:12;16.30;;;8.73;;
3547;SDS011;1788;49.400;11.092;2024-01-07T09:02:38;17.07;;;8.83;;
3547;SDS011;1788;49.400;11.092;2024-01-07T09:05:05;16.20;;;9.83;;
3547;SDS011;1788;49.400;11.092;2024-01-07T09:07:32;17.53;;;9.13;;
3547;SDS011;1788;49.400;11.092;2024-01-07T09:09:58;18.13;;;10.40;;
3547;SDS011;1788;49.400;11.092;2024-01-07T09:12:26;12.87;;;8.87;;
3547;SDS011;1788;49.400;11.092;2024-01-07T09:14:52;15.10;;;10.00;;
3547;SDS011;1788;49.400;11.092;2024-01-07T09:17:19;16.30;;;9.83;;
3547;SDS011;1788;49.400;11.092;2024-01-07T09:19:45;18.17;;;10.10;;
3547;SDS011;1788;49.400;11.092;2024-01-07T09:22:13;21.03;;;12.03;;
3547;SDS011;1788;49.400;11.092;2024-01-07T09:24:39;19.83;;;11.57;;
3547;SDS011;1788;49.400;11.092;2024-01-07T09:27:06;17.70;;;9.70;;
3547;SDS011;1788;49.400;11.092;2024-01-07T09:29:33;18.80;;;11.93;;
3547;SDS011;1788;49.400;11.092;2024-01-07T09:32:00;16.90;;;10.57;;
3547;SDS011;1788;49.400;11.092;2024-01-07T09:34:32;20.63;;;11.57;;
3547;SDS011;1788;49.400;11.092;2024-01-07T09:37:00;20.00;;;11.73;;
3547;SDS011;1788;49.400;11.092;2024-01-07T09:39:26;23.63;;;12.73;;
3547;SDS011;1788;49.400;11.092;2024-01-07T09:41:53;21.10;;;11.80;;
3547;SDS011;1788;49.400;11.092;2024-01-07T09:44:20;23.07;;;12.73;;
3547;SDS011;1788;49.400;11.092;2024-01-07T09:46:46;22.70;;;12.20;;
3547;SDS011;1788;49.400;11.092;2024-01-07T09:49:14;20.23;;;12.10;;
3547;SDS011;1788;49.400;11.092;2024-01-07T09:51:40;21.70;;;11.97;;
3547;SDS011;1788;49.400;11.092;2024-01-07T09:54:08;14.63;;;10.20;;
3547;SDS011;1788;49.400;11.092;2024-01-07T09:56:36;18.23;;;10.63;;
3547;SDS011;1788;49.400;11.092;2024-01-07T09:59:03;35.60;;;16.23;;
3547;SDS011;1788;49.400;11.092;2024-01-07T10:01:29;26.03;;;11.80;;
3547;SDS011;1788;49.400;11.092;2024-01-07T10:03:56;21.90;;;11.00;;
3547;SDS011;1788;49.400;11.092;2024-01-07T10:06:22;18.00;;;10.40;;
3547;SDS011;1788;49.400;11.092;2024-01-07T10:08:49;22.23;;;10.90;;
3547;SDS011;1788;49.400;11.092;2024-01-07T10:11:16;16.80;;;9.70;;
3547;SDS011;1788;49.400;11.092;2024-01-07T10:13:45;24.93;;;12.17;;
3547;SDS011;1788;49.400;11.092;2024-01-07T10:16:10;22.80;;;11.90;;
3547;SDS011;1788;49.400;11.092;2024-01-07T10:18:36;18.93;;;10.57;;
3547;SDS011;1788;49.400;11.092;2024-01-07T10:21:03;17.13;;;10.07;;
3547;SDS011;1788;49.400;11.092;2024-01-07T10:23:30;26.17;;;11.33;;
3547;SDS011;1788;49.400;11.092;2024-01-07T10:25:57;22.43;;;12.13;;
3547;SDS011;1788;49.400;11.092;2024-01-07T10:28:23;20.77;;;10.83;;
3547;SDS011;1788;49.400;11.092;2024-01-07T10:30:50;16.43;;;10.10;;
3547;SDS011;1788;49.400;11.092;2024-01-07T10:33:17;19.33;;;10.27;;
3547;SDS011;1788;49.400;11.092;2024-01-07T10:35:43;23.57;;;10.90;;
3547;SDS011;1788;49.400;11.092;2024-01-07T10:38:10;23.37;;;11.70;;
3547;SDS011;1788;49.400;11.092;2024-01-07T10:40:36;19.63;;;11.20;;
3547;SDS011;1788;49.400;11.092;2024-01-07T10:43:03;19.37;;;10.87;;
3547;SDS011;1788;49.400;11.092;2024-01-07T10:45:30;20.80;;;11.00;;
3547;SDS011;1788;49.400;11.092;2024-01-07T10:47:58;20.13;;;12.30;;
3547;SDS011;1788;49.400;11.092;2024-01-07T10:50:24;18.67;;;11.07;;
3547;SDS011;1788;49.400;11.092;2024-01-07T10:52:50;18.80;;;11.13;;
3547;SDS011;1788;49.400;11.092;2024-01-07T10:55:17;20.27;;;11.83;;
3547;SDS011;1788;49.400;11.092;2024-01-07T10:57:46;25.73;;;12.20;;
3547;SDS011;1788;49.400;11.092;2024-01-07T11:05:08;23.20;;;11.93;;
3547;SDS011;1788;49.400;11.092;2024-01-07T11:07:39;18.33;;;11.40;;
3547;SDS011;1788;49.400;11.092;2024-01-07T11:12:25;19.90;;;10.83;;
3547;SDS011;1788;49.400;11.092;2024-01-07T11:14:53;17.00;;;10.20;;
3547;SDS011;1788;49.400;11.092;2024-01-07T11:24:40;22.63;;;12.20;;
3547;SDS011;1788;49.400;11.092;2024-01-07T11:27:08;22.77;;;10.73;;
3547;SDS011;1788;49.400;11.092;2024-01-07T11:29:33;17.70;;;11.10;;
3547;SDS011;1788;49.400;11.092;2024-01-07T11:31:59;12.93;;;10.07;;
3547;SDS011;1788;49.400;11.092;2024-01-07T11:36:52;16.50;;;9.40;;
3547;SDS011;1788;49.400;11.092;2024-01-07T11:39:19;20.70;;;11.80;;
3547;SDS011;1788;49.400;11.092;2024-01-07T11:41:46;17.37;;;11.23;;
3547;SDS011;1788;49.400;11.092;2024-01-07T11:44:13;21.00;;;11.67;;
3547;SDS011;1788;49.400;11.092;2024-01-07T11:46:40;22.00;;;12.83;;
3547;SDS011;1788;49.400;11.092;2024-01-07T11:49:08;22.90;;;12.77;;
3547;SDS011;1788;49.400;11.092;2024-01-07T11:51:34;17.07;;;10.20;;
3547;SDS011;1788;49.400;11.092;2024-01-07T11:54:01;13.67;;;9.83;;
3547;SDS011;1788;49.400;11.092;2024-01-07T11:56:28;17.70;;;9.93;;
3547;SDS011;1788;49.400;11.092;2024-01-07T11:58:54;16.83;;;10.17;;
3547;SDS011;1788;49.400;11.092;2024-01-07T12:01:21;17.83;;;11.13;;
3547;SDS011;1788;49.400;11.092;2024-01-07T12:03:49;17.67;;;9.63;;
3547;SDS011;1788;49.400;11.092;2024-01-07T12:06:15;14.80;;;10.63;;
3547;SDS011;1788;49.400;11.092;2024-01-07T12:08:42;14.00;;;9.47;;
3547;SDS011;1788;49.400;11.092;2024-01-07T12:11:09;19.23;;;10.83;;
3547;SDS011;1788;49.400;11.092;2024-01-07T12:13:36;18.10;;;9.73;;
3547;SDS011;1788;49.400;11.092;2024-01-07T12:16:03;18.07;;;11.10;;
3547;SDS011;1788;49.400;11.092;2024-01-07T12:18:30;20.97;;;10.17;;
3547;SDS011;1788;49.400;11.092;2024-01-07T12:20:57;21.60;;;9.43;;
3547;SDS011;1788;49.400;11.092;2024-01-07T12:23:24;15.30;;;9.70;;
3547;SDS011;1788;49.400;11.092;2024-01-07T12:25:50;17.80;;;10.53;;
3547;SDS011;1788;49.400;11.092;2024-01-07T12:28:17;14.53;;;9.33;;
3547;SDS011;1788;49.400;11.092;2024-01-07T12:30:44;15.87;;;9.33;;
3547;SDS011;1788;49.400;11.092;2024-01-07T12:33:11;18.33;;;8.73;;
3547;SDS011;1788;49.400;11.092;2024-01-07T12:35:38;16.87;;;9.27;;
3547;SDS011;1788;49.400;11.092;2024-01-07T12:38:05;15.67;;;9.20;;
3547;SDS011;1788;49.400;11.092;2024-01-07T12:40:31;18.33;;;9.50;;
3547;SDS011;1788;49.400;11.092;2024-01-07T12:42:58;13.40;;;8.57;;
3547;SDS011;1788;49.400;11.092;2024-01-07T12:45:25;14.50;;;9.37;;
3547;SDS011;1788;49.400;11.092;2024-01-07T12:47:51;17.27;;;9.57;;
3547;SDS011;1788;49.400;11.092;2024-01-07T12:50:18;16.10;;;9.60;;
3547;SDS011;1788;49.400;11.092;2024-01-07T12:52:45;14.13;;;9.33;;
3547;SDS011;1788;49.400;11.092;2024-01-07T12:55:12;17.33;;;9.43;;
3547;SDS011;1788;49.400;11.092;2024-01-07T12:57:38;14.20;;;8.83;;
3547;SDS011;1788;49.400;11.092;2024-01-07T13:00:05;12.70;;;8.20;;
3547;SDS011;1788;49.400;11.092;2024-01-07T13:02:32;12.97;;;7.83;;
3547;SDS011;1788;49.400;11.092;2024-01-07T13:05:00;14.90;;;7.73;;
3547;SDS011;1788;49.400;11.092;2024-01-07T13:07:28;10.57;;;7.47;;
3547;SDS011;1788;49.400;11.092;2024-01-07T13:09:55;14.70;;;8.63;;
3547;SDS011;1788;49.400;11.092;2024-01-07T13:12:22;13.27;;;7.03;;
3547;SDS011;1788;49.400;11.092;2024-01-07T13:14:49;20.83;;;11.57;;
3547;SDS011;1788;49.400;11.092;2024-01-07T13:17:15;14.13;;;7.93;;
3547;SDS011;1788;49.400;11.092;2024-01-07T13:19:43;18.73;;;9.00;;
3547;SDS011;1788;49.400;11.092;2024-01-07T13:22:09;14.30;;;8.33;;
3547;SDS011;1788;49.400;11.092;2024-01-07T13:24:36;17.37;;;10.03;;
3547;SDS011;1788;49.400;11.092;2024-01-07T13:27:03;17.93;;;9.63;;
3547;SDS011;1788;49.400;11.092;2024-01-07T13:29:30;14.07;;;10.97;;
3547;SDS011;1788;49.400;11.092;2024-01-07T13:31:56;14.10;;;9.00;;
3547;SDS011;1788;49.400;11.092;2024-01-07T13:34:23;16.10;;;8.03;;
3547;SDS011;1788;49.400;11.092;2024-01-07T13:36:50;12.67;;;7.93;;
3547;SDS011;1788;49.400;11.092;2024-01-07T13:39:16;14.67;;;8.10;;
3547;SDS011;1788;49.400;11.092;2024-01-07T13:41:43;28.90;;;15.93;;
3547;SDS011;1788;49.400;11.092;2024-01-07T13:44:09;10.93;;;6.93;;
3547;SDS011;1788;49.400;11.092;2024-01-07T13:46:36;13.23;;;8.20;;
3547;SDS011;1788;49.400;11.092;2024-01-07T13:49:03;14.93;;;8.30;;
3547;SDS011;1788;49.400;11.092;2024-01-07T13:51:30;16.70;;;8.10;;
3547;SDS011;1788;49.400;11.092;2024-01-07T13:53:57;13.37;;;9.07;;
3547;SDS011;1788;49.400;11.092;2024-01-07T13:56:24;10.83;;;6.83;;
3547;SDS011;1788;49.400;11.092;2024-01-07T13:58:50;12.30;;;7.53;;
3547;SDS011;1788;49.400;11.092;2024-01-07T14:01:19;8.97;;;6.77;;
3547;SDS011;1788;49.400;11.092;2024-01-07T14:03:46;11.03;;;8.07;;
3547;SDS011;1788;49.400;11.092;2024-01-07T14:06:13;14.37;;;8.97;;
3547;SDS011;1788;49.400;11.092;2024-01-07T14:08:40;14.43;;;8.47;;
3547;SDS011;1788;49.400;11.092;2024-01-07T14:11:07;8.57;;;6.93;;
3547;SDS011;1788;49.400;11.092;2024-01-07T14:13:34;10.60;;;6.43;;
3547;SDS011;1788;49.400;11.092;2024-01-07T14:16:01;12.67;;;7.37;;
3547;SDS011;1788;49.400;11.092;2024-01-07T14:18:27;10.33;;;6.87;;
3547;SDS011;1788;49.400;11.092;2024-01-07T14:20:54;12.43;;;7.13;;
3547;SDS011;1788;49.400;11.092;2024-01-07T14:23:21;11.70;;;7.20;;
3547;SDS011;1788;49.400;11.092;2024-01-07T14:25:49;13.33;;;7.83;;
3547;SDS011;1788;49.400;11.092;2024-01-07T14:28:15;11.17;;;7.07;;
3547;SDS011;1788;49.400;11.092;2024-01-07T14:30:42;9.40;;;6.73;;
3547;SDS011;1788;49.400;11.092;2024-01-07T14:33:09;12.80;;;7.80;;
3547;SDS011;1788;49.400;11.092;2024-01-07T14:35:35;17.67;;;9.13;;
3547;SDS011;1788;49.400;11.092;2024-01-07T14:38:03;22.63;;;10.97;;
3547;SDS011;1788;49.400;11.092;2024-01-07T14:40:30;12.43;;;8.07;;
3547;SDS011;1788;49.400;11.092;2024-01-07T14:42:57;11.50;;;8.00;;
3547;SDS011;1788;49.400;11.092;2024-01-07T14:45:24;11.57;;;7.53;;
3547;SDS011;1788;49.400;11.092;2024-01-07T14:47:51;13.73;;;7.93;;
3547;SDS011;1788;49.400;11.092;2024-01-07T14:50:18;7.90;;;6.40;;
3547;SDS011;1788;49.400;11.092;2024-01-07T14:52:47;9.67;;;6.53;;
3547;SDS011;1788;49.400;11.092;2024-01-07T14:55:13;7.50;;;6.10;;
3547;SDS011;1788;49.400;11.092;2024-01-07T14:57:41;9.97;;;6.63;;
3547;SDS011;1788;49.400;11.092;2024-01-07T15:00:08;11.13;;;6.33;;